Pagrindinis puslapis
METAR-TAF:

METAR-TAF

Oro uostai :

Šeremetjevo oro uostas

Maskva-Šeremetjevo, Rusija

platuma: 55-58N, ilguma: 037-25E, Aukštis: 190 m

Dabartinis oras

Ataskaita buvo paskelbta 36 minutes, ne 08:00 UTC
Vėjas 8 kt iš Vakarų
Temperatūra 12°C
Drėgmė 88%
Slėgis 1015 hPa
Matomumas 10 km arba daugiau
Su prošvaistėmis ne aukštis 2500 ft

METAR: UUEE 180800Z 27004MPS 9999 BKN025 12/10 Q1015 R24C/190057 R24R/290051 NOSIG

Laikas: 11:36 (08:36 UTC)

Prognozė

Ataskaita buvo paskelbta 3 valandos ir 38 minutes, ne 04:58 UTC
Prognozė galioja nuo 18 metu 06 UTC su 19 metu 06 UTC
Vėjas 10 kt iš Vakarų
Matomumas 10 km arba daugiau
Su prošvaistėmis ne aukštis 1100 ft
Tapsmas
nuo 18 metu 15 UTC su 18 metu 17 UTC
Vėjas 6 kt iš Pietų
Laikinai
nuo 18 metu 21 UTC su 19 metu 05 UTC
Matomumas: 1000 m
Mažai debesys ne aukštis 300 ft
rūkana

TAF: UUEE 180458Z 1806/1906 26005MPS 9999 BKN011 TX14/1812Z TN08/1902Z BECMG 1815/1817 18003MPS TEMPO 1821/1905 1000 BR FEW003

Orai ataskaitas ir orų prognozės (METAR, TAF).

turimą stotys yra geltonos ir raudonos taškus žemėlapyje.

Perkelti pele per norėdami pamatyti stoties vardą.

Tada spustelėkite, norėdami matyti oro stebėjimo ir prognozės.

Norėdami pakeisti žemėlapį: spustelėkite ant žalios mygtukų su juodo kryžiaus žemyn,; žalią mygtuką su brūkšneliu, jei norite nutolinti; arba žalių rodyklių gretimoms žemėlapius.


METAR-TAF: